Flight Track Log - Related Links

Times and Time Zones

All times are in EDT time to prevent confusion due to time zone crossing. See the AAL2111 flight status page for this flight to view local times or setup timezone preferences in your user account.


Time Position Orientation Groundspeed Altitude Reporting Facility
EDT Latitude Longitude Course Direction KTS MPH feet Rate Location/Type
Sat 11:52:15 PM 25.7687 -80.2723 39° Northeast  Level FlightAware Approximate
Sat 11:53:04 PM 25.7944 -80.2489 111° Southeast 157 181 1,800  Level Miami Center
Sat 11:54:03 PM 25.7731 -80.1883 122° Southeast 216 249 3,400 2,139 Climbing Miami Center
Sat 11:54:59 PM 25.7389 -80.1275 172° South 259 298 5,900 1,810 Climbing Miami Center
Sat 11:55:59 PM 25.6639 -80.1164 179° South 275 316 6,900 480 Climbing Miami Center
Sat 11:57:04 PM 25.5950 -80.1144 166° South 278 320 6,900 774 Level Miami Center
Sat 11:58:03 PM 25.5222 -80.0939 156° South 273 314 8,500 1,850 Climbing Miami Center
Sat 11:59:04 PM 25.4478 -80.0575 158° South 273 314 10,600 1,587 Climbing Miami Center
Sun 12:00:04 AM 25.3611 -80.0183 154° Southeast 305 351 11,700 1,587 Climbing Miami Center
Sun 12:01:05 AM 25.2639 -79.9653 147° Southeast 353 406 13,800 2,182 Climbing Miami Center
Sun 12:02:05 AM 25.1714 -79.8989 147° Southeast 383 441 16,100 2,033 Climbing Miami Center
Sun 12:03:06 AM 25.0767 -79.8322 147° Southeast 402 463 17,900 1,881 Climbing Miami Center
Sun 12:04:03 AM 24.9778 -79.7611 147° Southeast 413 475 19,800 1,780 Climbing Miami Center
Sun 12:05:04 AM 24.8767 -79.6878 166° South 423 487 21,400 1,525 Climbing Miami Center
Sun 12:06:05 AM 24.7603 -79.6553 175° South 423 487 22,900 1,475 Climbing Miami Center
Sun 12:07:06 AM 24.6331 -79.6433 175° South 437 503 24,400 1,488 Climbing Miami Center
Sun 12:08:06 AM 24.5058 -79.6314 174° South 449 517 25,900 1,475 Climbing Miami Center
Sun 12:09:04 AM 24.3808 -79.6172 175° South 460 529 27,300 1,250 Climbing Miami Center
Sun 12:10:06 AM 24.2494 -79.6050 173° South 460 529 28,400 1,388 Climbing Miami Center
Sun 12:11:05 AM 24.1244 -79.5886 174° South 465 535 30,100 1,300 Climbing Miami Center
Sun 12:12:06 AM 23.9972 -79.5744 179° South 460 529 31,000 885 Climbing Miami Center
Sun 12:19:15 AM 23.1070 -79.5545 179° South  Level FlightAware Approximate
Sun 12:20:15 AM 22.9825 -79.5517 179° South  Level FlightAware Approximate
Sun 12:21:15 AM 22.8580 -79.5490 179° South  Level FlightAware Approximate
Sun 12:22:15 AM 22.7335 -79.5462 179° South  Level FlightAware Approximate
Sun 12:23:15 AM 22.6089 -79.5435 179° South  Level FlightAware Approximate
Sun 12:24:15 AM 22.4844 -79.5407 179° South  Level FlightAware Approximate
Sun 12:25:15 AM 22.3599 -79.5380 179° South  Level FlightAware Approximate
Sun 12:26:15 AM 22.2354 -79.5352 179° South  Level FlightAware Approximate
Sun 12:27:15 AM 22.1109 -79.5325 179° South  Level FlightAware Approximate
Sun 12:28:15 AM 21.9864 -79.5298 179° South  Level FlightAware Approximate
Sun 12:29:15 AM 21.8619 -79.5270 179° South  Level FlightAware Approximate
Sun 12:30:15 AM 21.7374 -79.5243 179° South  Level FlightAware Approximate
Sun 12:31:15 AM 21.6129 -79.5216 179° South  Level FlightAware Approximate
Sun 12:32:15 AM 21.4884 -79.5189 179° South  Level FlightAware Approximate
Sun 12:33:15 AM 21.3638 -79.5162 179° South  Level FlightAware Approximate
Sun 12:34:15 AM 21.2393 -79.5135 179° South  Level FlightAware Approximate
Sun 12:35:15 AM 21.1148 -79.5108 179° South  Level FlightAware Approximate
Sun 12:36:15 AM 20.9903 -79.5081 179° South  Level FlightAware Approximate
Sun 12:37:15 AM 20.8658 -79.5054 179° South  Level FlightAware Approximate
Sun 12:38:15 AM 20.7413 -79.5028 179° South  Level FlightAware Approximate
Sun 12:39:15 AM 20.6168 -79.5001 179° South  Level FlightAware Approximate
Sun 12:40:15 AM 20.4923 -79.4974 179° South  Level FlightAware Approximate
Sun 12:41:15 AM 20.3678 -79.4948 179° South  Level FlightAware Approximate
Sun 12:42:15 AM 20.2433 -79.4921 179° South  Level FlightAware Approximate
Sun 12:43:15 AM 20.1187 -79.4894 181° South  Level FlightAware Approximate
Sun 12:44:15 AM 19.9942 -79.4918 181° South  Level FlightAware Approximate
Sun 12:45:15 AM 19.8697 -79.4941 181° South  Level FlightAware Approximate
Sun 12:46:15 AM 19.7452 -79.4965 181° South  Level FlightAware Approximate
Sun 12:47:15 AM 19.6207 -79.4988 181° South  Level FlightAware Approximate
Sun 12:48:15 AM 19.4962 -79.5012 181° South  Level FlightAware Approximate
Sun 12:49:15 AM 19.3717 -79.5035 181° South  Level FlightAware Approximate
Sun 12:50:15 AM 19.2472 -79.5059 181° South  Level FlightAware Approximate
Sun 12:51:15 AM 19.1226 -79.5082 181° South  Level FlightAware Approximate
Sun 12:52:15 AM 18.9981 -79.5105 181° South  Level FlightAware Approximate
Sun 12:53:15 AM 18.8736 -79.5129 181° South  Level FlightAware Approximate
Sun 12:54:15 AM 18.7491 -79.5152 181° South  Level FlightAware Approximate
Sun 12:55:15 AM 18.6246 -79.5175 181° South  Level FlightAware Approximate
Sun 12:56:15 AM 18.5001 -79.5198 181° South  Level FlightAware Approximate
Sun 12:57:15 AM 18.3756 -79.5221 181° South  Level FlightAware Approximate
Sun 12:58:15 AM 18.2511 -79.5245 181° South  Level FlightAware Approximate
Sun 12:59:15 AM 18.1265 -79.5268 181° South  Level FlightAware Approximate
Sun 01:00:15 AM 18.0020 -79.5291 181° South  Level FlightAware Approximate
Sun 01:01:15 AM 17.8775 -79.5314 181° South  Level FlightAware Approximate
Sun 01:02:15 AM 17.7530 -79.5337 181° South  Level FlightAware Approximate
Sun 01:03:15 AM 17.6285 -79.5359 181° South  Level FlightAware Approximate
Sun 01:04:15 AM 17.5040 -79.5382 181° South  Level FlightAware Approximate
Sun 01:05:15 AM 17.3794 -79.5405 181° South  Level FlightAware Approximate
Sun 01:06:15 AM 17.2549 -79.5428 181° South  Level FlightAware Approximate
Sun 01:07:15 AM 17.1304 -79.5451 181° South  Level FlightAware Approximate
Sun 01:08:15 AM 17.0059 -79.5474 181° South  Level FlightAware Approximate
Sun 01:09:15 AM 16.8814 -79.5497 181° South  Level FlightAware Approximate
Sun 01:10:15 AM 16.7569 -79.5519 181° South  Level FlightAware Approximate
Sun 01:11:15 AM 16.6324 -79.5542 181° South  Level FlightAware Approximate
Sun 01:12:15 AM 16.5079 -79.5565 181° South  Level FlightAware Approximate
Sun 01:13:15 AM 16.3833 -79.5587 181° South  Level FlightAware Approximate
Sun 01:14:15 AM 16.2588 -79.5610 181° South  Level FlightAware Approximate
Sun 01:15:15 AM 16.1343 -79.5632 181° South  Level FlightAware Approximate
Sun 01:16:15 AM 16.0098 -79.5655 181° South  Level FlightAware Approximate
Sun 01:17:15 AM 15.8853 -79.5677 181° South  Level FlightAware Approximate
Sun 01:18:15 AM 15.7607 -79.5700 181° South  Level FlightAware Approximate
Sun 01:19:15 AM 15.6362 -79.5722 181° South  Level FlightAware Approximate
Sun 01:20:15 AM 15.5117 -79.5745 181° South  Level FlightAware Approximate
Sun 01:21:15 AM 15.3872 -79.5767 181° South  Level FlightAware Approximate
Sun 01:22:15 AM 15.2627 -79.5790 181° South  Level FlightAware Approximate
Sun 01:23:15 AM 15.1382 -79.5812 181° South  Level FlightAware Approximate
Sun 01:24:15 AM 15.0136 -79.5834 175° South  Level FlightAware Approximate
Sun 01:25:15 AM 14.8895 -79.5727 175° South  Level FlightAware Approximate
Sun 01:26:15 AM 14.7654 -79.5619 175° South  Level FlightAware Approximate
Sun 01:27:15 AM 14.6413 -79.5512 175° South  Level FlightAware Approximate
Sun 01:28:15 AM 14.5172 -79.5404 175° South  Level FlightAware Approximate
Sun 01:29:15 AM 14.3931 -79.5297 175° South  Level FlightAware Approximate
Sun 01:30:15 AM 14.2690 -79.5190 175° South  Level FlightAware Approximate
Sun 01:31:15 AM 14.1449 -79.5083 175° South  Level FlightAware Approximate
Sun 01:32:15 AM 14.0208 -79.4976 175° South  Level FlightAware Approximate
Sun 01:33:15 AM 13.8967 -79.4869 175° South  Level FlightAware Approximate
Sun 01:34:15 AM 13.7726 -79.4762 175° South  Level FlightAware Approximate
Sun 01:35:15 AM 13.6485 -79.4656 175° South  Level FlightAware Approximate
Sun 01:36:15 AM 13.5244 -79.4549 175° South  Level FlightAware Approximate
Sun 01:37:15 AM 13.4003 -79.4443 175° South  Level FlightAware Approximate
Sun 01:38:15 AM 13.2762 -79.4337 175° South  Level FlightAware Approximate
Sun 01:39:15 AM 13.1521 -79.4231 175° South  Level FlightAware Approximate
Sun 01:40:15 AM 13.0280 -79.4125 175° South  Level FlightAware Approximate
Sun 01:41:15 AM 12.9039 -79.4019 175° South  Level FlightAware Approximate
Sun 01:42:15 AM 12.7798 -79.3913 175° South  Level FlightAware Approximate
Sun 01:43:15 AM 12.6557 -79.3807 175° South  Level FlightAware Approximate
Sun 01:44:15 AM 12.5316 -79.3702 175° South  Level FlightAware Approximate
Sun 01:45:15 AM 12.4075 -79.3596 175° South  Level FlightAware Approximate
Sun 01:46:15 AM 12.2833 -79.3491 175° South  Level FlightAware Approximate
Sun 01:47:15 AM 12.1592 -79.3386 175° South  Level FlightAware Approximate
Sun 01:48:15 AM 12.0351 -79.3280 175° South  Level FlightAware Approximate
Sun 01:49:15 AM 11.9110 -79.3175 175° South  Level FlightAware Approximate
Sun 01:50:15 AM 11.7869 -79.3070 175° South  Level FlightAware Approximate
Sun 01:51:15 AM 11.6628 -79.2965 175° South  Level FlightAware Approximate
Sun 01:52:15 AM 11.5387 -79.2861 175° South  Level FlightAware Approximate
Sun 01:53:15 AM 11.4146 -79.2756 175° South  Level FlightAware Approximate
Sun 01:54:15 AM 11.2905 -79.2651 175° South  Level FlightAware Approximate
Sun 01:55:15 AM 11.1664 -79.2547 175° South  Level FlightAware Approximate
Sun 01:56:15 AM 11.0422 -79.2442 175° South  Level FlightAware Approximate
Sun 01:57:15 AM 10.9181 -79.2338 175° South  Level FlightAware Approximate
Sun 01:58:15 AM 10.7940 -79.2234 175° South  Level FlightAware Approximate
Sun 01:59:15 AM 10.6699 -79.2129 175° South  Level FlightAware Approximate
Sun 02:00:15 AM 10.5458 -79.2025 175° South  Level FlightAware Approximate
Sun 02:01:15 AM 10.4217 -79.1921 175° South  Level FlightAware Approximate
Sun 02:02:15 AM 10.2976 -79.1817 175° South  Level FlightAware Approximate
Sun 02:03:15 AM 10.1735 -79.1713 175° South  Level FlightAware Approximate
Sun 02:04:15 AM 10.0494 -79.1610 175° South  Level FlightAware Approximate
Sun 02:05:15 AM 9.9253 -79.1506 175° South  Level FlightAware Approximate
Sun 02:06:15 AM 9.8011 -79.1402 175° South  Level FlightAware Approximate
Sun 02:07:15 AM 9.6770 -79.1299 175° South  Level FlightAware Approximate
Sun 02:08:15 AM 9.5529 -79.1195 175° South  Level FlightAware Approximate
Sun 02:09:15 AM 9.4288 -79.1092 175° South  Level FlightAware Approximate
Sun 02:10:15 AM 9.3047 -79.0988 175° South  Level FlightAware Approximate
Sun 02:11:15 AM 9.1805 -79.0885 175° South  Level FlightAware Approximate
Sun 02:12:15 AM 9.0564 -79.0782 175° South  Level FlightAware Approximate
Sun 02:13:15 AM 8.9323 -79.0679 175° South  Level FlightAware Approximate
Sun 02:14:15 AM 8.8082 -79.0576 175° South  Level FlightAware Approximate
Sun 02:15:15 AM 8.6840 -79.0473 175° South  Level FlightAware Approximate
Sun 02:16:15 AM 8.5599 -79.0370 175° South  Level FlightAware Approximate
Sun 02:17:15 AM 8.4358 -79.0267 175° South  Level FlightAware Approximate
Sun 02:18:15 AM 8.3117 -79.0164 175° South  Level FlightAware Approximate
Sun 02:19:15 AM 8.1876 -79.0062 175° South  Level FlightAware Approximate
Sun 02:20:15 AM 8.0634 -78.9959 175° South  Level FlightAware Approximate
Sun 02:21:15 AM 7.9393 -78.9856 175° South  Level FlightAware Approximate
Sun 02:22:15 AM 7.8152 -78.9754 175° South  Level FlightAware Approximate
Sun 02:23:15 AM 7.6911 -78.9651 175° South  Level FlightAware Approximate
Sun 02:24:15 AM 7.5670 -78.9549 175° South  Level FlightAware Approximate
Sun 02:25:15 AM 7.4429 -78.9447 175° South  Level FlightAware Approximate
Sun 02:26:15 AM 7.3187 -78.9344 175° South  Level FlightAware Approximate
Sun 02:27:15 AM 7.1946 -78.9242 175° South  Level FlightAware Approximate
Sun 02:28:15 AM 7.0705 -78.9140 175° South  Level FlightAware Approximate
Sun 02:29:15 AM 6.9464 -78.9038 175° South  Level FlightAware Approximate
Sun 02:30:15 AM 6.8222 -78.8936 175° South  Level FlightAware Approximate
Sun 02:31:15 AM 6.6981 -78.8834 175° South  Level FlightAware Approximate
Sun 02:32:15 AM 6.5740 -78.8732 175° South  Level FlightAware Approximate
Sun 02:33:15 AM 6.4499 -78.8630 175° South  Level FlightAware Approximate
Sun 02:34:15 AM 6.3258 -78.8528 175° South  Level FlightAware Approximate
Sun 02:35:15 AM 6.2017 -78.8426 175° South  Level FlightAware Approximate
Sun 02:36:15 AM 6.0775 -78.8325 175° South  Level FlightAware Approximate
Sun 02:37:15 AM 5.9534 -78.8223 175° South  Level FlightAware Approximate
Sun 02:38:15 AM 5.8293 -78.8121 175° South  Level FlightAware Approximate
Sun 02:39:15 AM 5.7052 -78.8020 175° South  Level FlightAware Approximate
Sun 02:40:15 AM 5.5810 -78.7918 175° South  Level FlightAware Approximate
Sun 02:41:15 AM 5.4569 -78.7817 175° South  Level FlightAware Approximate
Sun 02:42:15 AM 5.3328 -78.7715 175° South  Level FlightAware Approximate
Sun 02:43:15 AM 5.2087 -78.7614 175° South  Level FlightAware Approximate
Sun 02:44:15 AM 5.0846 -78.7512 175° South  Level FlightAware Approximate
Sun 02:45:15 AM 4.9605 -78.7411 175° South  Level FlightAware Approximate
Sun 02:46:15 AM 4.8363 -78.7309 175° South  Level FlightAware Approximate
Sun 02:47:15 AM 4.7122 -78.7208 175° South  Level FlightAware Approximate
Sun 02:48:15 AM 4.5881 -78.7107 175° South  Level FlightAware Approximate
Sun 02:49:15 AM 4.4640 -78.7006 175° South  Level FlightAware Approximate
Sun 02:50:15 AM 4.3398 -78.6905 175° South  Level FlightAware Approximate
Sun 02:51:15 AM 4.2157 -78.6803 175° South  Level FlightAware Approximate
Sun 02:52:15 AM 4.0916 -78.6702 175° South  Level FlightAware Approximate
Sun 02:53:15 AM 3.9674 -78.6601 175° South  Level FlightAware Approximate
Sun 02:54:15 AM 3.8433 -78.6500 175° South  Level FlightAware Approximate
Sun 02:55:15 AM 3.7192 -78.6399 175° South  Level FlightAware Approximate
Sun 02:56:15 AM 3.5951 -78.6298 175° South  Level FlightAware Approximate
Sun 02:57:15 AM 3.4709 -78.6197 175° South  Level FlightAware Approximate
Sun 02:58:15 AM 3.3468 -78.6096 175° South  Level FlightAware Approximate
Sun 02:59:15 AM 3.2227 -78.5995 175° South  Level FlightAware Approximate
Sun 03:00:15 AM 3.0985 -78.5894 175° South  Level FlightAware Approximate
Sun 03:01:15 AM 2.9744 -78.5794 175° South  Level FlightAware Approximate
Sun 03:02:15 AM 2.8503 -78.5693 175° South  Level FlightAware Approximate
Sun 03:03:15 AM 2.7262 -78.5592 175° South  Level FlightAware Approximate
Sun 03:04:15 AM 2.6020 -78.5491 175° South  Level FlightAware Approximate
Sun 03:05:15 AM 2.4779 -78.5390 174° South  Level FlightAware Approximate
Sun 03:06:15 AM 2.3539 -78.5271 174° South  Level FlightAware Approximate
Sun 03:07:15 AM 2.2300 -78.5151 174° South  Level FlightAware Approximate
Sun 03:08:15 AM 2.1060 -78.5032 174° South  Level FlightAware Approximate
Sun 03:09:15 AM 1.9820 -78.4912 174° South  Level FlightAware Approximate
Sun 03:10:15 AM 1.8581 -78.4792 174° South  Level FlightAware Approximate
Sun 03:11:15 AM 1.7341 -78.4673 174° South  Level FlightAware Approximate
Sun 03:12:15 AM 1.6102 -78.4553 174° South  Level FlightAware Approximate
Sun 03:13:15 AM 1.4862 -78.4434 174° South  Level FlightAware Approximate
Sun 03:14:15 AM 1.3622 -78.4314 174° South  Level FlightAware Approximate
Sun 03:15:15 AM 1.2383 -78.4195 174° South  Level FlightAware Approximate
Sun 03:16:15 AM 1.1143 -78.4075 174° South  Level FlightAware Approximate
Sun 03:17:15 AM 0.9904 -78.3956 174° South  Level FlightAware Approximate
Sun 03:18:15 AM 0.8664 -78.3836 174° South  Level FlightAware Approximate
Sun 03:19:15 AM 0.7424 -78.3717 174° South  Level FlightAware Approximate
Sun 03:20:15 AM 0.6185 -78.3597 174° South  Level FlightAware Approximate
Sun 03:21:15 AM 0.4945 -78.3478 174° South  Level FlightAware Approximate
Sun 03:22:15 AM 0.3706 -78.3359 174° South  Level FlightAware Approximate
Sun 03:23:15 AM 0.2466 -78.3239 174° South  Level FlightAware Approximate
Sun 03:24:15 AM 0.1226 -78.3120 174° South  Level FlightAware Approximate
Sun 03:25:15 AM -0.0013 -78.3000 174° South  Level FlightAware Approximate
Sun 03:26:15 AM -0.1253 -78.2881 174° South  Level FlightAware Approximate
Sun 03:27:15 AM -0.2492 -78.2762 174° South  Level FlightAware Approximate
Sun 03:28:15 AM -0.3732 -78.2642 174° South  Level FlightAware Approximate
Sun 03:29:15 AM -0.4972 -78.2523 174° South  Level FlightAware Approximate
Sun 03:30:15 AM -0.6211 -78.2403 174° South  Level FlightAware Approximate
Sun 03:31:15 AM -0.7451 -78.2284 174° South  Level FlightAware Approximate
Sun 03:32:15 AM -0.8690 -78.2165 174° South  Level FlightAware Approximate
Sun 03:33:15 AM -0.9930 -78.2045 174° South  Level FlightAware Approximate
Sun 03:34:15 AM -1.1170 -78.1926 174° South  Level FlightAware Approximate
Sun 03:35:15 AM -1.2409 -78.1806 174° South  Level FlightAware Approximate
Sun 03:36:15 AM -1.3649 -78.1687 174° South  Level FlightAware Approximate
Sun 03:37:15 AM -1.4888 -78.1567 174° South  Level FlightAware Approximate
Sun 03:38:15 AM -1.6128 -78.1448 174° South  Level FlightAware Approximate
Sun 03:39:15 AM -1.7368 -78.1328 174° South  Level FlightAware Approximate
Sun 03:40:15 AM -1.8607 -78.1208 174° South  Level FlightAware Approximate
Sun 03:41:15 AM -1.9847 -78.1089 174° South  Level FlightAware Approximate
Sun 03:42:15 AM -2.1086 -78.0969 174° South  Level FlightAware Approximate
Sun 03:43:15 AM -2.2326 -78.0850 174° South  Level FlightAware Approximate
Sun 03:44:15 AM -2.3565 -78.0730 174° South  Level FlightAware Approximate
Sun 03:45:15 AM -2.4805 -78.0610 174° South  Level FlightAware Approximate
Sun 03:46:15 AM -2.6045 -78.0490 174° South  Level FlightAware Approximate
Sun 03:47:15 AM -2.7284 -78.0371 174° South  Level FlightAware Approximate
Sun 03:48:15 AM -2.8524 -78.0251 174° South  Level FlightAware Approximate
Sun 03:49:15 AM -2.9764 -78.0131 174° South  Level FlightAware Approximate
Sun 03:50:15 AM -3.1003 -78.0012 174° South  Level FlightAware Approximate
Sun 03:51:15 AM -3.2243 -77.9892 174° South  Level FlightAware Approximate
Sun 03:52:15 AM -3.3482 -77.9772 174° South  Level FlightAware Approximate
Sun 03:53:15 AM -3.4722 -77.9652 174° South  Level FlightAware Approximate
Sun 03:54:15 AM -3.5961 -77.9532 174° South  Level FlightAware Approximate
Sun 03:55:15 AM -3.7201 -77.9412 174° South  Level FlightAware Approximate
Sun 03:56:15 AM -3.8441 -77.9292 174° South  Level FlightAware Approximate
Sun 03:57:15 AM -3.9680 -77.9172 174° South  Level FlightAware Approximate
Sun 03:58:15 AM -4.0920 -77.9052 174° South  Level FlightAware Approximate
Sun 03:59:15 AM -4.2160 -77.8932 174° South  Level FlightAware Approximate
Sun 04:00:15 AM -4.3399 -77.8812 174° South  Level FlightAware Approximate
Sun 04:01:15 AM -4.4639 -77.8692 174° South  Level FlightAware Approximate
Sun 04:02:15 AM -4.5878 -77.8572 174° South  Level FlightAware Approximate
Sun 04:03:15 AM -4.7118 -77.8452 174° South  Level FlightAware Approximate
Sun 04:04:15 AM -4.8358 -77.8331 174° South  Level FlightAware Approximate
Sun 04:05:15 AM -4.9597 -77.8211 174° South  Level FlightAware Approximate
Sun 04:06:15 AM -5.0837 -77.8091 174° South  Level FlightAware Approximate
Sun 04:07:15 AM -5.2076 -77.7970 174° South  Level FlightAware Approximate
Sun 04:08:15 AM -5.3316 -77.7850 174° South  Level FlightAware Approximate
Sun 04:09:15 AM -5.4556 -77.7729 174° South  Level FlightAware Approximate
Sun 04:10:15 AM -5.5795 -77.7609 174° South  Level FlightAware Approximate
Sun 04:11:15 AM -5.7035 -77.7488 174° South  Level FlightAware Approximate
Sun 04:12:15 AM -5.8274 -77.7367 174° South  Level FlightAware Approximate
Sun 04:13:15 AM -5.9514 -77.7247 174° South  Level FlightAware Approximate
Sun 04:14:15 AM -6.0753 -77.7126 174° South  Level FlightAware Approximate
Sun 04:15:15 AM -6.1993 -77.7005 174° South  Level FlightAware Approximate
Sun 04:16:15 AM -6.3232 -77.6884 174° South  Level FlightAware Approximate
Sun 04:17:15 AM -6.4472 -77.6763 174° South  Level FlightAware Approximate
Sun 04:18:15 AM -6.5711 -77.6642 174° South  Level FlightAware Approximate
Sun 04:19:15 AM -6.6951 -77.6521 174° South  Level FlightAware Approximate
Sun 04:20:15 AM -6.8190 -77.6400 174° South  Level FlightAware Approximate
Sun 04:21:15 AM -6.9430 -77.6279 174° South  Level FlightAware Approximate
Sun 04:22:15 AM -7.0669 -77.6158 174° South  Level FlightAware Approximate
Sun 04:23:15 AM -7.1909 -77.6036 174° South  Level FlightAware Approximate
Sun 04:24:15 AM -7.3148 -77.5915 174° South  Level FlightAware Approximate
Sun 04:25:15 AM -7.4388 -77.5794 174° South  Level FlightAware Approximate
Sun 04:26:15 AM -7.5627 -77.5672 174° South  Level FlightAware Approximate
Sun 04:27:15 AM -7.6867 -77.5550 174° South  Level FlightAware Approximate
Sun 04:28:15 AM -7.8106 -77.5429 174° South  Level FlightAware Approximate
Sun 04:29:15 AM -7.9346 -77.5307 174° South  Level FlightAware Approximate
Sun 04:30:15 AM -8.0585 -77.5185 174° South  Level FlightAware Approximate
Sun 04:31:15 AM -8.1825 -77.5063 174° South  Level FlightAware Approximate
Sun 04:32:15 AM -8.3064 -77.4941 174° South  Level FlightAware Approximate
Sun 04:33:15 AM -8.4304 -77.4819 174° South  Level FlightAware Approximate
Sun 04:34:15 AM -8.5543 -77.4697 174° South  Level FlightAware Approximate
Sun 04:35:15 AM -8.6783 -77.4575 174° South  Level FlightAware Approximate
Sun 04:36:15 AM -8.8022 -77.4453 174° South  Level FlightAware Approximate
Sun 04:37:15 AM -8.9262 -77.4331 174° South  Level FlightAware Approximate
Sun 04:38:15 AM -9.0501 -77.4208 174° South  Level FlightAware Approximate
Sun 04:39:15 AM -9.1741 -77.4085 174° South  Level FlightAware Approximate
Sun 04:40:15 AM -9.2980 -77.3963 174° South  Level FlightAware Approximate
Sun 04:41:15 AM -9.4219 -77.3840 174° South  Level FlightAware Approximate
Sun 04:42:15 AM -9.5459 -77.3717 174° South  Level FlightAware Approximate
Sun 04:43:15 AM -9.6698 -77.3595 174° South  Level FlightAware Approximate
Sun 04:44:15 AM -9.7938 -77.3472 174° South  Level FlightAware Approximate
Sun 04:45:15 AM -9.9177 -77.3348 174° South  Level FlightAware Approximate
Sun 04:46:15 AM -10.0416 -77.3225 174° South  Level FlightAware Approximate
Sun 04:47:15 AM -10.1656 -77.3102 174° South  Level FlightAware Approximate
Sun 04:48:15 AM -10.2895 -77.2979 174° South  Level FlightAware Approximate
Sun 04:49:15 AM -10.4135 -77.2855 174° South  Level FlightAware Approximate
Sun 04:50:15 AM -10.5374 -77.2732 174° South  Level FlightAware Approximate
Sun 04:51:15 AM -10.6613 -77.2608 174° South  Level FlightAware Approximate
Sun 04:52:15 AM -10.7853 -77.2485 174° South  Level FlightAware Approximate
Sun 04:53:15 AM -10.9092 -77.2361 174° South  Level FlightAware Approximate
Sun 04:54:15 AM -11.0332 -77.2237 174° South  Level FlightAware Approximate
Sun 04:55:15 AM -11.1571 -77.2113 204° Southwest  Level FlightAware Approximate
Sun 04:56:15 AM -11.2598 -77.2580 170° South  Level FlightAware Approximate
Sun 04:57:15 AM -11.3823 -77.2354 170° South  Level FlightAware Approximate

Login

Don't have an account? Register now (free) for customized features, flight alerts, and more!